Time;durP1;ratioP1;P1;durP2;ratioP2;P2;SDS_P1;SDS_P2;PMS_P1;PMS_P2;Temp;Humidity;BMP_temperature;BMP_pressure;BME280_temperature;BME280_humidity;BME280_pressure;Samples;Min_cycle;Max_cycle;Signal;HPM_P1;HPM_P2
2021/12/17 00:00:19;;;;;;;7.65;6.07;;;22.50;48.00;;;;;;4997963;28;20057;-61
2021/12/17 00:03:11;;;;;;;8.82;6.07;;;22.50;48.00;;;;;;4997940;28;20073;-62
2021/12/17 00:06:12;;;;;;;6.82;5.63;;;22.50;48.00;;;;;;4997440;28;20057;-61
2021/12/17 00:08:25;;;;;;;7.88;5.60;;;22.50;48.10;;;;;;4996781;28;20136;-61
2021/12/17 00:10:51;;;;;;;6.00;5.40;;;22.40;48.10;;;;;;4997171;28;20081;-61
2021/12/17 00:13:18;;;;;;;6.03;5.28;;;22.40;48.20;;;;;;4997274;28;20042;-61
2021/12/17 00:15:45;;;;;;;10.27;5.05;;;22.40;48.20;;;;;;4997734;28;20129;-61
2021/12/17 00:18:19;;;;;;;6.57;5.18;;;22.40;48.20;;;;;;4997144;28;20065;-61
2021/12/17 00:40:14;;;;;;;7.65;5.47;;;22.40;48.30;;;;;;4997624;28;20046;-62
2021/12/17 00:53:46;;;;;;;4.97;4.28;;;22.10;48.70;;;;;;4996358;28;20577;-61
2021/12/17 00:56:12;;;;;;;5.85;4.63;;;22.00;48.70;;;;;;4996408;28;20128;-62
2021/12/17 00:58:38;;;;;;;4.00;3.38;;;22.00;48.80;;;;;;4996405;28;20385;-61
2021/12/17 01:01:03;;;;;;;5.13;3.83;;;22.00;48.80;;;;;;4995116;28;20061;-61
2021/12/17 01:03:29;;;;;;;5.07;3.90;;;22.00;48.80;;;;;;4996298;28;20042;-61
2021/12/17 01:05:55;;;;;;;5.20;4.13;;;22.00;48.90;;;;;;4995040;28;20053;-61
2021/12/17 01:08:20;;;;;;;4.53;4.07;;;22.00;48.90;;;;;;4996149;28;20544;-61
2021/12/17 01:10:53;;;;;;;5.15;3.45;;;21.90;48.80;;;;;;4996080;28;20043;-61
2021/12/17 01:13:19;;;;;;;4.90;4.18;;;21.90;48.80;;;;;;4995030;28;20039;-61
2021/12/17 01:15:45;;;;;;;5.07;3.92;;;21.90;48.90;;;;;;4995787;28;20544;-61
2021/12/17 01:18:16;;;;;;;5.40;4.13;;;21.90;48.90;;;;;;4996093;28;20042;-61
2021/12/17 01:23:48;;;;;;;8.45;3.92;;;21.90;49.00;;;;;;4994201;28;20054;-61
2021/12/17 01:36:52;;;;;;;4.65;3.47;;;21.80;49.50;;;;;;4995739;28;20520;-61
2021/12/17 01:42:06;;;;;;;5.25;3.55;;;21.80;49.70;;;;;;4996144;28;20385;-61
2021/12/17 01:44:34;;;;;;;4.22;3.83;;;21.70;49.70;;;;;;4995549;28;20046;-61
2021/12/17 01:47:00;;;;;;;4.22;3.50;;;21.70;49.80;;;;;;4995460;28;20077;-61
2021/12/17 02:00:15;;;;;;;3.60;3.10;;;21.60;50.00;;;;;;4995568;28;20054;-61
2021/12/17 02:02:46;;;;;;;4.63;3.15;;;21.60;50.10;;;;;;4995247;28;20504;-61
2021/12/17 02:05:13;;;;;;;4.15;3.10;;;21.60;50.10;;;;;;4994908;28;20046;-61
2021/12/17 02:07:40;;;;;;;5.03;3.78;;;21.60;50.10;;;;;;4995030;28;20042;-61
2021/12/17 02:10:39;;;;;;;4.13;3.50;;;21.60;50.10;;;;;;4995498;28;20038;-61
2021/12/17 02:13:07;;;;;;;4.03;3.40;;;21.60;50.10;;;;;;4995106;28;20049;-61
2021/12/17 02:31:48;;;;;;;3.97;3.20;;;21.50;50.20;;;;;;4994194;28;20089;-61
2021/12/17 02:36:49;;;;;;;4.90;3.42;;;21.50;50.30;;;;;;4995375;28;20132;-61
2021/12/17 02:47:09;;;;;;;3.10;2.80;;;21.40;50.30;;;;;;4994988;28;20137;-61
2021/12/17 02:49:36;;;;;;;2.92;2.60;;;21.40;50.40;;;;;;4992898;28;20117;-62
2021/12/17 02:52:05;;;;;;;2.75;2.50;;;21.40;50.40;;;;;;4994372;28;20516;-62
2021/12/17 02:54:33;;;;;;;2.88;2.58;;;21.40;50.40;;;;;;4993295;28;20050;-61
2021/12/17 02:56:59;;;;;;;2.70;2.50;;;21.40;50.50;;;;;;4994283;28;20050;-61
2021/12/17 02:59:25;;;;;;;2.40;2.20;;;21.40;50.40;;;;;;4994270;28;20056;-62
2021/12/17 03:01:51;;;;;;;3.28;2.30;;;21.40;50.40;;;;;;4994047;28;20540;-61
2021/12/17 03:04:19;;;;;;;4.00;2.40;;;21.30;50.40;;;;;;4994664;28;20089;-61
2021/12/17 03:06:45;;;;;;;2.78;2.08;;;21.40;50.50;;;;;;4993009;28;20042;-61
2021/12/17 03:09:11;;;;;;;3.60;2.50;;;21.30;51.20;;;;;;4994558;28;20044;-61
2021/12/17 03:11:38;;;;;;;2.45;2.20;;;21.30;50.40;;;;;;4994119;28;20124;-61
2021/12/17 03:14:05;;;;;;;2.20;2.00;;;21.30;50.50;;;;;;4994029;28;20097;-61
2021/12/17 03:16:54;;;;;;;2.35;2.10;;;21.30;50.40;;;;;;4993907;28;20077;-62
2021/12/17 03:23:25;;;;;;;2.72;2.22;;;21.30;50.50;;;;;;4994029;28;20038;-62
2021/12/17 03:24:52;;;;;;;2.35;2.15;;;21.30;50.50;;;;;;4994212;28;20069;-61
2021/12/17 03:27:17;;;;;;;2.70;2.33;;;21.20;50.50;;;;;;4993988;28;20509;-61
2021/12/17 03:29:43;;;;;;;2.55;2.35;;;21.20;50.50;;;;;;4993801;28;20093;-61
2021/12/17 03:32:08;;;;;;;3.05;2.40;;;21.20;50.50;;;;;;4993834;28;20096;-62
2021/12/17 03:34:34;;;;;;;2.85;2.10;;;21.20;50.50;;;;;;4993912;28;20386;-62
2021/12/17 03:36:59;;;;;;;2.20;2.00;;;21.20;50.50;;;;;;4993896;28;20474;-61
2021/12/17 03:39:27;;;;;;;2.65;2.25;;;21.20;50.50;;;;;;4993026;28;20046;-62
2021/12/17 03:41:53;;;;;;;2.58;2.38;;;21.20;50.50;;;;;;4992548;28;20048;-62
2021/12/17 03:44:20;;;;;;;4.57;2.55;;;21.20;50.60;;;;;;4993853;28;20042;-62
2021/12/17 03:46:48;;;;;;;2.88;2.20;;;21.20;50.60;;;;;;4994277;28;20038;-61
2021/12/17 03:49:17;;;;;;;2.60;2.33;;;21.20;50.60;;;;;;4993647;28;20077;-61
2021/12/17 03:51:53;;;;;;;2.28;2.08;;;21.20;50.60;;;;;;4993943;28;20034;-61
2021/12/17 03:54:18;;;;;;;2.33;2.13;;;21.20;50.70;;;;;;4993791;28;20046;-61
2021/12/17 03:56:44;;;;;;;2.63;2.10;;;21.10;50.60;;;;;;4994068;28;20046;-61
2021/12/17 03:59:10;;;;;;;2.30;2.10;;;21.10;50.60;;;;;;4993680;28;20057;-61
2021/12/17 04:01:40;;;;;;;4.07;2.40;;;21.10;50.60;;;;;;4993714;28;20049;-61
2021/12/17 04:04:06;;;;;;;3.17;2.65;;;21.10;50.60;;;;;;4993522;28;20049;-62
2021/12/17 04:06:32;;;;;;;3.28;2.40;;;21.10;50.60;;;;;;4993589;28;20052;-61
2021/12/17 04:08:58;;;;;;;3.03;2.42;;;21.10;50.70;;;;;;4993507;28;20125;-61
2021/12/17 04:11:24;;;;;;;2.72;2.35;;;21.10;50.60;;;;;;4993554;28;20411;-61
2021/12/17 04:13:55;;;;;;;2.72;2.53;;;21.10;50.70;;;;;;4993567;28;20038;-61
2021/12/17 04:16:25;;;;;;;3.47;2.50;;;21.10;50.70;;;;;;4993596;28;20049;-61
2021/12/17 04:18:52;;;;;;;2.28;2.08;;;21.10;50.70;;;;;;4994073;28;20053;-61
2021/12/17 04:21:18;;;;;;;2.92;2.28;;;21.00;50.60;;;;;;4992055;28;20374;-61
2021/12/17 04:23:45;;;;;;;2.83;2.53;;;21.00;50.70;;;;;;4993554;28;20054;-61
2021/12/17 04:26:11;;;;;;;2.90;2.65;;;21.00;50.70;;;;;;4992050;28;20039;-61
2021/12/17 04:28:42;;;;;;;2.50;2.30;;;21.00;50.70;;;;;;4993506;28;20053;-61
2021/12/17 04:31:07;;;;;;;;;;;21.00;50.70;;;;;;4997342;28;20084;-61
2021/12/17 04:33:33;;;;;;;3.20;2.53;;;21.00;50.60;;;;;;4996899;28;20335;-61
2021/12/17 04:35:59;;;;;;;2.50;2.30;;;21.00;50.80;;;;;;4996814;28;20034;-61
2021/12/17 04:38:27;;;;;;;3.03;2.50;;;20.90;50.80;;;;;;4996809;28;20038;-61
2021/12/17 04:40:53;;;;;;;2.67;2.47;;;21.00;50.80;;;;;;4996805;28;20046;-61
2021/12/17 04:43:48;;;;;;;3.70;2.40;;;20.90;50.80;;;;;;4995699;28;20057;-61
2021/12/17 04:59:41;;;;;;;2.10;1.90;;;20.90;50.80;;;;;;4977698;28;20078;-61
2021/12/17 05:02:07;;;;;;;2.55;2.35;;;20.90;50.80;;;;;;4976758;28;20101;-62
2021/12/17 05:04:32;;;;;;;2.70;2.30;;;20.90;50.80;;;;;;4976827;28;20478;-62
2021/12/17 05:06:58;;;;;;;2.67;2.47;;;20.90;50.80;;;;;;4977319;28;20039;-61
2021/12/17 05:09:33;;;;;;;2.78;2.40;;;20.90;50.80;;;;;;4977472;28;20042;-61
2021/12/17 05:19:57;;;;;;;2.83;2.50;;;20.80;50.80;;;;;;4976685;28;20050;-61
2021/12/17 05:22:25;;;;;;;2.90;2.60;;;20.80;50.80;;;;;;4976384;28;20134;-61
2021/12/17 05:24:52;;;;;;;2.40;2.20;;;20.80;50.80;;;;;;4976239;28;20494;-61
2021/12/17 05:27:18;;;;;;;2.80;2.42;;;20.80;50.90;;;;;;4976459;28;20053;-61
2021/12/17 05:29:44;;;;;;;2.20;2.00;;;20.80;50.80;;;;;;4976351;28;20418;-61
2021/12/17 05:32:10;;;;;;;2.85;2.58;;;20.80;50.90;;;;;;4976334;28;20048;-61
2021/12/17 05:34:36;;;;;;;2.80;2.50;;;20.80;50.90;;;;;;4976354;28;20113;-62
2021/12/17 05:37:02;;;;;;;2.45;2.25;;;20.80;50.80;;;;;;4976278;28;20055;-61
2021/12/17 05:39:27;;;;;;;3.15;2.83;;;20.80;50.90;;;;;;4976669;28;20336;-61
2021/12/17 05:41:53;;;;;;;2.72;2.47;;;20.80;50.90;;;;;;4976228;28;20053;-61
2021/12/17 05:44:20;;;;;;;2.38;2.17;;;20.80;50.90;;;;;;4976124;28;20039;-61
2021/12/17 05:46:51;;;;;;;2.85;2.60;;;20.80;50.90;;;;;;4975346;28;20043;-61
2021/12/17 05:49:21;;;;;;;2.60;2.40;;;20.70;50.90;;;;;;4976445;28;20178;-61
2021/12/17 05:51:48;;;;;;;3.30;2.53;;;20.70;50.90;;;;;;4975615;28;20167;-61
2021/12/17 05:54:14;;;;;;;2.92;2.60;;;20.70;50.90;;;;;;4975634;28;20470;-61
2021/12/17 05:56:40;;;;;;;2.58;2.38;;;20.70;50.90;;;;;;4975941;28;20043;-61
2021/12/17 05:59:06;;;;;;;2.85;2.33;;;20.70;50.80;;;;;;4976248;28;20473;-61
2021/12/17 06:01:32;;;;;;;2.75;2.47;;;20.70;50.80;;;;;;4975479;28;20382;-61
2021/12/17 06:03:58;;;;;;;2.42;2.22;;;20.70;50.90;;;;;;4975537;28;20133;-61
2021/12/17 06:06:31;;;;;;;2.58;2.38;;;20.70;50.90;;;;;;4975696;28;20039;-61
2021/12/17 06:08:56;;;;;;;2.60;2.40;;;20.70;50.90;;;;;;4974341;28;20422;-61
2021/12/17 06:11:22;;;;;;;2.50;2.30;;;20.70;50.90;;;;;;4975621;28;20047;-61
2021/12/17 06:13:48;;;;;;;2.78;2.40;;;20.70;50.90;;;;;;4975675;28;20050;-61
2021/12/17 06:16:14;;;;;;;2.58;2.10;;;20.70;50.90;;;;;;4975531;28;20080;-61
2021/12/17 06:18:39;;;;;;;2.70;2.50;;;20.70;50.90;;;;;;4975830;28;20045;-61
2021/12/17 06:21:05;;;;;;;2.83;2.53;;;20.60;50.90;;;;;;4974976;28;20482;-61
2021/12/17 06:23:30;;;;;;;3.30;2.35;;;20.60;50.90;;;;;;4975704;28;20082;-61
2021/12/17 06:25:56;;;;;;;3.42;2.50;;;20.60;50.90;;;;;;4974554;28;20454;-61
2021/12/17 06:28:21;;;;;;;2.67;2.47;;;20.60;50.90;;;;;;4975245;28;20451;-61
2021/12/17 06:30:47;;;;;;;2.90;2.58;;;20.60;50.90;;;;;;4975744;28;20376;-61
2021/12/17 06:33:12;;;;;;;2.80;2.50;;;20.60;50.90;;;;;;4975258;28;20034;-61
2021/12/17 06:35:38;;;;;;;2.50;2.03;;;20.60;50.90;;;;;;4974886;28;20056;-61
2021/12/17 06:38:04;;;;;;;3.45;2.90;;;20.60;51.00;;;;;;4974458;28;20046;-61
2021/12/17 06:40:30;;;;;;;3.30;2.20;;;20.60;51.00;;;;;;4975143;28;20046;-61
2021/12/17 06:42:57;;;;;;;3.28;2.50;;;20.60;51.10;;;;;;4974823;28;20371;-61
2021/12/17 06:45:38;;;;;;;2.78;2.50;;;20.60;51.10;;;;;;4975031;28;20047;-61
2021/12/17 06:48:04;;;;;;;3.03;2.45;;;20.60;51.20;;;;;;4975090;28;20483;-60
2021/12/17 07:01:13;;;;;;;4.18;2.47;;;20.60;51.50;;;;;;4974617;28;20385;-60
2021/12/17 07:11:53;;;;;;;3.42;2.30;;;20.60;51.70;;;;;;4974730;28;20047;-62
2021/12/17 07:32:02;;;;;;;4.75;2.80;;;20.60;52.00;;;;;;4969913;28;20199;-61
2021/12/17 07:33:17;;;;;;;3.53;3.00;;;20.60;52.00;;;;;;4983034;28;20050;-60
2021/12/17 07:35:46;;;;;;;6.25;2.75;;;20.60;52.20;;;;;;4977123;28;20452;-60
2021/12/17 07:40:57;;;;;;;6.60;2.67;;;20.60;52.10;;;;;;4988717;28;20046;-60
2021/12/17 07:43:27;;;;;;;3.22;2.58;;;20.60;52.10;;;;;;4983994;28;20042;-60
2021/12/17 07:45:54;;;;;;;3.78;2.42;;;20.60;52.20;;;;;;4994316;28;20038;-60
2021/12/17 07:48:22;;;;;;;5.78;3.10;;;20.60;52.20;;;;;;4993640;28;20101;-60
2021/12/17 07:50:47;;;;;;;3.33;2.50;;;20.60;52.20;;;;;;4973395;28;20043;-61
2021/12/17 07:53:14;;;;;;;3.72;2.67;;;20.60;52.20;;;;;;4972170;28;20065;-61
2021/12/17 07:55:40;;;;;;;3.42;2.65;;;20.60;52.10;;;;;;4993055;28;20049;-57
2021/12/17 07:58:06;;;;;;;4.63;2.47;;;20.60;52.30;;;;;;4971223;28;20035;-60
2021/12/17 08:00:31;;;;;;;4.47;2.50;;;20.60;52.30;;;;;;4986694;28;20042;-60
2021/12/17 08:02:57;;;;;;;6.57;2.78;;;20.60;52.40;;;;;;4986278;28;20394;-61
2021/12/17 08:05:22;;;;;;;6.82;2.72;;;20.50;52.50;;;;;;4987251;28;20134;-60
2021/12/17 08:07:48;;;;;;;7.53;2.38;;;20.50;52.50;;;;;;4981142;28;20042;-60
2021/12/17 08:10:14;;;;;;;6.20;2.75;;;20.50;52.60;;;;;;4977173;28;20090;-60
2021/12/17 08:12:39;;;;;;;3.50;2.60;;;20.50;52.70;;;;;;4990452;28;20050;-60
2021/12/17 08:15:08;;;;;;;11.18;2.70;;;20.50;52.70;;;;;;4993982;28;20045;-59
2021/12/17 08:17:54;;;;;;;3.83;2.50;;;20.50;52.80;;;;;;4996831;28;20488;-60
2021/12/17 08:26:28;;;;;;;5.10;2.70;;;20.50;52.90;;;;;;4976502;28;20046;-60
2021/12/17 08:28:50;;;;;;;5.10;2.80;;;20.50;52.80;;;;;;4981098;28;20100;-60
2021/12/17 08:31:16;;;;;;;8.23;3.20;;;20.50;52.90;;;;;;4994488;28;20454;-59
2021/12/17 08:33:42;;;;;;;4.70;3.17;;;20.50;52.90;;;;;;4992042;28;20049;-60
2021/12/17 08:36:07;;;;;;;6.18;2.72;;;20.50;52.90;;;;;;4992259;28;20045;-60
2021/12/17 08:38:33;;;;;;;5.13;2.90;;;20.50;52.80;;;;;;4977646;28;20050;-60
2021/12/17 08:41:00;;;;;;;4.90;2.83;;;20.50;52.70;;;;;;4984355;28;20041;-61
2021/12/17 08:43:25;;;;;;;4.47;2.83;;;20.50;52.70;;;;;;4996735;28;20053;-61
2021/12/17 08:45:51;;;;;;;7.28;3.20;;;20.50;52.60;;;;;;4981580;28;20047;-61
2021/12/17 08:48:17;;;;;;;7.47;3.47;;;20.50;52.60;;;;;;4977591;28;20074;-60
2021/12/17 08:50:43;;;;;;;7.18;3.22;;;20.50;52.50;;;;;;4992466;28;20070;-61
2021/12/17 08:53:09;;;;;;;3.92;2.33;;;20.40;52.60;;;;;;4992691;28;20145;-60
2021/12/17 08:55:34;;;;;;;5.28;3.08;;;20.50;52.70;;;;;;4987403;28;20450;-61
2021/12/17 08:58:00;;;;;;;4.47;3.15;;;20.50;52.70;;;;;;4979837;28;20053;-60
2021/12/17 09:00:26;;;;;;;9.02;3.42;;;20.50;52.80;;;;;;4992214;28;20424;-61
2021/12/17 09:02:51;;;;;;;8.30;3.92;;;20.40;52.80;;;;;;4982004;28;20045;-61
2021/12/17 09:05:18;;;;;;;12.05;3.80;;;20.50;52.80;;;;;;4997020;28;20367;-60
2021/12/17 09:07:44;;;;;;;9.13;3.78;;;20.50;52.80;;;;;;4991160;28;20042;-58
2021/12/17 09:10:11;;;;;;;5.82;3.08;;;20.50;52.90;;;;;;4975786;28;20081;-61
2021/12/17 09:12:39;;;;;;;11.55;3.50;;;20.50;53.00;;;;;;4979636;28;20054;-59
2021/12/17 09:15:05;;;;;;;8.27;3.25;;;20.50;53.10;;;;;;4985652;28;20041;-61
2021/12/17 09:17:35;;;;;;;12.65;3.58;;;20.50;53.40;;;;;;4993789;28;20560;-61
2021/12/17 09:20:00;;;;;;;13.07;3.42;;;20.50;53.80;;;;;;4987057;28;20058;-61
2021/12/17 09:22:26;;;;;;;8.77;3.60;;;20.50;53.90;;;;;;4996104;28;20051;-61
2021/12/17 09:24:52;;;;;;;7.72;3.47;;;20.50;54.10;;;;;;4986249;28;20081;-61
2021/12/17 09:27:18;;;;;;;7.93;3.28;;;20.50;54.30;;;;;;4991803;28;20478;-61
2021/12/17 09:29:44;;;;;;;7.32;3.42;;;20.60;54.50;;;;;;4977819;28;20042;-61
2021/12/17 09:32:10;;;;;;;8.32;3.03;;;20.60;54.40;;;;;;4983613;28;20090;-61
2021/12/17 09:34:36;;;;;;;5.15;3.00;;;20.60;54.30;;;;;;4995916;28;20129;-61
2021/12/17 09:37:02;;;;;;;7.38;2.97;;;20.60;54.50;;;;;;4984237;28;20130;-61
2021/12/17 09:39:27;;;;;;;10.75;3.08;;;20.70;54.80;;;;;;4970696;28;20043;-61
2021/12/17 09:41:53;;;;;;;9.32;2.50;;;20.70;55.00;;;;;;4996284;28;20458;-61
2021/12/17 09:44:19;;;;;;;5.70;2.55;;;20.70;55.00;;;;;;4995930;28;20521;-61
2021/12/17 09:46:46;;;;;;;24.63;3.33;;;20.70;55.00;;;;;;4995290;28;20042;-61
2021/12/17 09:49:12;;;;;;;7.05;2.85;;;20.80;55.10;;;;;;4991646;28;20046;-61
2021/12/17 09:51:38;;;;;;;8.80;3.35;;;20.80;55.10;;;;;;4991412;28;20045;-61
2021/12/17 09:54:04;;;;;;;4.50;2.50;;;20.80;55.20;;;;;;4992610;28;20041;-61
2021/12/17 09:56:30;;;;;;;5.05;2.28;;;20.80;55.30;;;;;;4987818;28;20038;-61
2021/12/17 09:58:56;;;;;;;6.05;2.30;;;20.90;55.30;;;;;;4978175;28;20480;-61
2021/12/17 10:01:22;;;;;;;8.07;2.42;;;20.90;55.40;;;;;;4992352;28;20034;-61
2021/12/17 10:04:11;;;;;;;5.43;2.30;;;20.90;55.40;;;;;;4986088;28;20094;-61
2021/12/17 10:06:36;;;;;;;8.65;2.45;;;20.90;55.20;;;;;;4974837;28;20043;-63
2021/12/17 10:09:02;;;;;;;8.55;2.63;;;20.90;55.30;;;;;;4977123;28;20050;-61
2021/12/17 10:11:28;;;;;;;8.32;2.40;;;20.90;56.70;;;;;;4987558;28;20049;-61
2021/12/17 10:13:53;;;;;;;5.03;2.30;;;20.90;56.40;;;;;;4995222;28;20046;-61
2021/12/17 10:16:21;;;;;;;6.43;2.42;;;20.90;55.90;;;;;;4991802;28;20061;-61
2021/12/17 10:18:49;;;;;;;4.90;1.85;;;20.90;55.60;;;;;;4977332;28;20066;-61
2021/12/17 10:21:24;;;;;;;7.68;2.10;;;20.90;55.60;;;;;;4985717;28;20050;-61
2021/12/17 10:23:55;;;;;;;7.53;1.80;;;21.00;55.60;;;;;;4988818;28;20497;-61
2021/12/17 10:26:21;;;;;;;;;;;21.00;55.50;;;;;;4977213;28;20482;-61
2021/12/17 10:28:58;;;;;;;5.72;1.65;;;21.00;55.30;;;;;;4988646;28;19924;-62
2021/12/17 10:31:26;;;;;;;3.28;1.63;;;21.00;55.20;;;;;;4983731;28;20077;-62
2021/12/17 10:33:54;;;;;;;6.38;1.95;;;21.00;55.20;;;;;;4973992;28;20470;-61
2021/12/17 10:36:36;;;;;;;4.25;2.00;;;21.00;55.20;;;;;;4969692;28;20043;-61
2021/12/17 10:39:25;;;;;;;2.95;1.70;;;21.00;55.00;;;;;;4973624;28;20122;-62
2021/12/17 10:41:51;;;;;;;3.70;2.00;;;21.00;55.00;;;;;;4979631;28;20088;-62
2021/12/17 10:44:20;;;;;;;3.13;1.95;;;21.00;55.20;;;;;;4995078;28;20046;-61
2021/12/17 10:47:19;;;;;;;6.95;1.70;;;21.00;55.20;;;;;;4985452;28;20082;-61
2021/12/17 10:49:56;;;;;;;6.95;2.08;;;21.00;55.40;;;;;;4993248;28;20097;-61
2021/12/17 10:52:31;;;;;;;5.72;2.15;;;21.00;55.30;;;;;;4972801;28;20469;-61
2021/12/17 10:55:07;;;;;;;4.30;2.08;;;21.00;55.40;;;;;;4985151;28;20441;-61
2021/12/17 10:57:32;;;;;;;5.10;1.88;;;21.00;55.60;;;;;;4985642;28;20058;-61
2021/12/17 11:00:02;;;;;;;4.85;2.22;;;21.00;55.70;;;;;;4988235;28;21443;-61
2021/12/17 11:02:33;;;;;;;4.63;2.13;;;21.00;55.80;;;;;;4994333;28;20042;-60
2021/12/17 11:05:10;;;;;;;4.65;2.10;;;21.00;55.80;;;;;;4988042;28;20050;-61
2021/12/17 11:07:39;;;;;;;6.82;2.15;;;21.00;55.90;;;;;;4990949;28;20034;-61
2021/12/17 11:10:06;;;;;;;6.18;1.95;;;21.00;55.90;;;;;;4982138;28;20039;-61
2021/12/17 11:12:42;;;;;;;4.13;1.83;;;21.00;55.70;;;;;;4972643;28;20038;-61
2021/12/17 11:15:21;;;;;;;6.10;2.40;;;21.00;55.70;;;;;;4991074;28;20045;-61
2021/12/17 11:17:54;;;;;;;1.98;1.70;;;21.00;55.70;;;;;;4975100;28;20046;-61
2021/12/17 11:20:27;;;;;;;4.15;1.85;;;21.00;55.70;;;;;;4971386;28;20137;-61
2021/12/17 11:22:55;;;;;;;7.25;1.75;;;21.00;55.70;;;;;;4974998;28;20050;-61
2021/12/17 11:25:22;;;;;;;3.30;2.00;;;21.00;55.70;;;;;;4981409;28;20062;-61
2021/12/17 11:27:48;;;;;;;3.80;1.60;;;21.00;55.70;;;;;;4986117;28;20053;-60
2021/12/17 11:30:17;;;;;;;5.18;1.92;;;21.00;55.70;;;;;;4975028;28;20039;-61
2021/12/17 11:32:44;;;;;;;4.90;2.33;;;21.00;55.70;;;;;;4981905;28;20042;-61
2021/12/17 11:35:11;;;;;;;3.97;1.77;;;21.00;55.80;;;;;;4994018;28;20042;-61
2021/12/17 11:37:41;;;;;;;1.83;1.50;;;21.00;55.80;;;;;;4987422;28;20043;-61
2021/12/17 11:40:16;;;;;;;3.38;1.90;;;21.00;55.80;;;;;;4997998;28;20045;-61
2021/12/17 11:43:10;;;;;;;3.60;1.50;;;21.00;55.80;;;;;;4992847;28;20539;-61
2021/12/17 11:45:35;;;;;;;5.30;1.85;;;21.00;55.70;;;;;;4994704;28;20038;-61
2021/12/17 11:48:13;;;;;;;4.63;1.80;;;21.00;55.90;;;;;;4984614;28;20432;-61
2021/12/17 11:50:39;;;;;;;4.43;1.70;;;21.00;55.90;;;;;;4994120;28;20540;-61
2021/12/17 11:53:23;;;;;;;3.70;1.65;;;21.00;56.00;;;;;;4997727;28;20096;-61
2021/12/17 11:55:57;;;;;;;6.22;1.65;;;21.00;56.00;;;;;;4984477;28;20046;-62
2021/12/17 11:58:53;;;;;;;6.28;1.70;;;21.10;56.10;;;;;;4994531;28;20054;-61
2021/12/17 12:02:11;;;;;;;2.60;1.52;;;21.00;56.20;;;;;;4983560;28;20046;-61
2021/12/17 12:04:37;;;;;;;4.50;2.10;;;21.10;56.20;;;;;;4985227;28;20474;-59
2021/12/17 12:07:11;;;;;;;4.20;1.63;;;21.10;56.20;;;;;;4977078;28;20043;-61
2021/12/17 12:10:13;;;;;;;4.32;1.58;;;21.10;56.10;;;;;;4982736;28;20038;-61
2021/12/17 12:12:38;;;;;;;5.05;2.05;;;21.10;56.10;;;;;;4993104;28;20046;-61
2021/12/17 12:15:23;;;;;;;3.85;1.88;;;21.00;56.00;;;;;;4976689;28;20045;-62
2021/12/17 12:17:58;;;;;;;4.13;1.70;;;21.10;56.00;;;;;;4961338;28;20038;-64
2021/12/17 12:20:58;;;;;;;3.03;1.77;;;21.10;56.10;;;;;;4972863;28;20074;-61
2021/12/17 12:23:30;;;;;;;5.18;1.70;;;21.10;56.10;;;;;;4945139;28;20057;-70
2021/12/17 12:26:05;;;;;;;7.82;2.10;;;21.00;56.10;;;;;;4971560;28;20085;-61
2021/12/17 12:28:50;;;;;;;8.10;2.55;;;21.00;56.10;;;;;;4966819;28;20106;-61
2021/12/17 12:31:31;;;;;;;5.53;2.35;;;21.00;56.10;;;;;;4991853;28;20050;-61
2021/12/17 12:37:00;;;;;;;4.97;1.95;;;21.00;56.10;;;;;;4996856;28;19917;-59
2021/12/17 12:39:48;;;;;;;9.35;2.40;;;21.00;56.20;;;;;;4991379;28;20057;-59
2021/12/17 12:42:19;;;;;;;4.10;1.77;;;21.00;56.20;;;;;;4990037;28;20039;-58
2021/12/17 12:44:45;;;;;;;6.75;2.00;;;21.00;56.20;;;;;;4981386;28;20184;-59
2021/12/17 12:47:26;;;;;;;9.25;1.75;;;21.00;56.10;;;;;;4983457;28;20038;-59
2021/12/17 12:50:07;;;;;;;;;;;21.00;56.10;;;;;;4993325;28;20046;-59
2021/12/17 12:52:39;;;;;;;5.95;1.85;;;21.00;55.90;;;;;;4975338;28;19980;-59
2021/12/17 12:55:19;;;;;;;7.32;2.08;;;20.90;55.90;;;;;;4977947;28;20073;-59
2021/12/17 12:57:47;;;;;;;6.68;2.33;;;20.90;55.90;;;;;;4990007;28;20046;-59
2021/12/17 13:00:19;;;;;;;5.80;2.05;;;20.90;55.90;;;;;;4996502;28;20038;-59
2021/12/17 13:02:49;;;;;;;9.52;2.40;;;20.90;55.90;;;;;;4994184;28;20493;-59
2021/12/17 13:05:15;;;;;;;4.53;2.10;;;21.00;55.90;;;;;;4987126;28;20374;-58
2021/12/17 13:07:47;;;;;;;3.67;1.63;;;20.90;55.80;;;;;;4983274;28;20035;-59
2021/12/17 13:10:28;;;;;;;7.50;2.60;;;21.00;55.80;;;;;;4987793;28;20038;-59
2021/12/17 13:13:23;;;;;;;6.32;2.55;;;21.00;55.70;;;;;;4980727;28;20034;-59
2021/12/17 13:23:55;;;;;;;6.65;2.28;;;20.90;55.60;;;;;;4988171;28;20050;-59
2021/12/17 13:26:26;;;;;;;3.90;2.10;;;20.90;55.60;;;;;;4981177;28;20079;-58
2021/12/17 13:29:01;;;;;;;5.07;2.25;;;20.90;55.60;;;;;;4985212;28;20543;-59
2021/12/17 13:31:50;;;;;;;8.70;2.45;;;20.90;55.60;;;;;;4973253;28;21322;-59
2021/12/17 13:34:15;;;;;;;11.50;2.92;;;20.90;55.60;;;;;;4977451;28;20415;-59
2021/12/17 13:36:55;;;;;;;9.27;2.70;;;20.90;55.60;;;;;;4993177;28;20049;-58
2021/12/17 13:39:23;;;;;;;10.45;2.65;;;20.90;55.70;;;;;;4976858;28;20042;-58
2021/12/17 13:41:49;;;;;;;9.38;3.17;;;20.90;55.60;;;;;;4979873;28;20128;-58
2021/12/17 13:44:41;;;;;;;12.25;3.28;;;20.90;55.60;;;;;;4989589;28;20038;-58
2021/12/17 13:47:13;;;;;;;8.75;2.88;;;20.90;55.70;;;;;;4991292;28;20042;-58
2021/12/17 13:50:05;;;;;;;12.10;2.78;;;20.80;55.60;;;;;;4972466;28;20043;-58
2021/12/17 13:52:32;;;;;;;6.80;2.60;;;20.90;55.70;;;;;;4971258;28;20058;-58
2021/12/17 13:54:59;;;;;;;13.45;3.13;;;20.90;55.80;;;;;;4978769;28;20431;-58
2021/12/17 13:57:28;;;;;;;9.85;2.97;;;20.90;55.80;;;;;;4976691;28;20045;-58
2021/12/17 14:00:08;;;;;;;12.93;3.00;;;20.90;55.90;;;;;;4975901;28;20043;-58
2021/12/17 14:02:36;;;;;;;11.20;3.45;;;20.90;55.90;;;;;;4983932;28;20812;-58
2021/12/17 14:05:09;;;;;;;12.88;3.35;;;20.80;55.90;;;;;;4975872;28;20050;-58
2021/12/17 14:07:37;;;;;;;16.42;3.20;;;20.80;55.90;;;;;;4986299;28;20438;-58
2021/12/17 14:10:14;;;;;;;14.02;2.88;;;20.80;56.00;;;;;;4978111;28;20042;-58
2021/12/17 14:12:41;;;;;;;13.95;3.63;;;20.80;56.10;;;;;;4978171;28;20390;-58
2021/12/17 14:15:23;;;;;;;15.20;3.60;;;20.80;56.30;;;;;;4977097;28;20050;-58
2021/12/17 14:17:56;;;;;;;11.23;3.20;;;20.80;56.40;;;;;;4972980;28;20074;-58
2021/12/17 14:20:24;;;;;;;10.45;2.70;;;20.80;56.60;;;;;;4975682;28;20057;-58
2021/12/17 14:22:53;;;;;;;11.63;2.53;;;20.80;56.70;;;;;;4984301;28;20086;-58
2021/12/17 14:25:36;;;;;;;11.60;3.28;;;20.80;56.80;;;;;;4988200;28;20053;-58
2021/12/17 14:28:10;;;;;;;8.77;2.97;;;20.90;57.00;;;;;;4995379;28;20039;-58
2021/12/17 14:30:36;;;;;;;16.45;3.15;;;20.80;57.10;;;;;;4971795;28;20061;-58
2021/12/17 14:33:31;;;;;;;9.23;2.60;;;20.80;57.10;;;;;;4987316;28;20046;-57
2021/12/17 14:36:02;;;;;;;14.02;3.60;;;20.90;57.30;;;;;;4991773;28;20054;-58
2021/12/17 14:38:47;;;;;;;11.70;3.42;;;20.80;57.20;;;;;;4991358;28;20057;-58
2021/12/17 14:41:17;;;;;;;16.75;3.25;;;20.90;57.60;;;;;;4988777;28;20045;-58
2021/12/17 14:43:54;;;;;;;13.73;3.42;;;20.80;57.40;;;;;;4988014;28;20046;-58
2021/12/17 14:46:24;;;;;;;15.07;3.95;;;20.80;57.50;;;;;;4987473;28;20038;-58
2021/12/17 14:57:12;;;;;;;8.35;2.85;;;20.80;57.40;;;;;;4994602;28;20058;-59
2021/12/17 15:03:40;;;;;;;9.60;2.88;;;20.80;57.10;;;;;;4986307;28;20124;-57
2021/12/17 15:06:07;;;;;;;8.77;3.10;;;20.80;57.00;;;;;;4994094;28;20066;-58
2021/12/17 15:08:33;;;;;;;6.63;2.50;;;20.80;57.00;;;;;;4971893;28;20053;-58
2021/12/17 15:11:02;;;;;;;8.85;2.80;;;20.80;56.90;;;;;;4989281;28;20532;-58
2021/12/17 15:13:27;;;;;;;7.50;2.95;;;20.80;56.90;;;;;;4993799;28;20045;-58
2021/12/17 15:15:54;;;;;;;7.25;2.97;;;20.80;56.90;;;;;;4987461;28;20046;-58
2021/12/17 15:18:20;;;;;;;8.43;3.13;;;20.80;57.50;;;;;;4990747;28;20049;-58
2021/12/17 15:20:54;;;;;;;5.20;2.63;;;20.70;56.70;;;;;;4990113;28;20377;-58
2021/12/17 15:23:20;;;;;;;9.60;2.60;;;20.70;56.60;;;;;;4988755;28;20133;-58
2021/12/17 15:25:48;;;;;;;6.07;2.80;;;20.70;56.60;;;;;;4968688;28;20042;-58
2021/12/17 15:28:18;;;;;;;11.38;2.42;;;20.70;56.50;;;;;;4980609;28;20101;-58
2021/12/17 15:30:49;;;;;;;9.50;2.87;;;20.70;56.60;;;;;;4976398;28;20462;-58
2021/12/17 15:33:16;;;;;;;12.48;3.08;;;20.70;56.50;;;;;;4980549;28;20048;-57
2021/12/17 15:35:43;;;;;;;8.10;2.53;;;20.70;56.50;;;;;;4973311;28;20050;-58
2021/12/17 15:38:10;;;;;;;10.02;3.38;;;20.70;56.20;;;;;;4974501;28;20130;-58
2021/12/17 15:40:41;;;;;;;9.93;2.65;;;20.70;56.20;;;;;;4989826;28;20485;-59
2021/12/17 15:43:07;;;;;;;9.38;2.92;;;20.70;56.20;;;;;;4986390;28;20043;-59
2021/12/17 15:45:37;;;;;;;9.10;3.28;;;20.60;56.20;;;;;;4989243;28;20043;-59
2021/12/17 15:48:02;;;;;;;7.65;2.50;;;20.60;56.30;;;;;;4986224;28;20038;-59
2021/12/17 15:50:28;;;;;;;13.90;3.30;;;20.60;56.20;;;;;;4992141;28;20042;-59
2021/12/17 15:52:53;;;;;;;8.82;2.70;;;20.60;56.20;;;;;;4993779;28;20121;-59
2021/12/17 15:55:23;;;;;;;11.13;2.83;;;20.60;56.20;;;;;;4990507;28;20046;-59